Time;durP1;ratioP1;P1;durP2;ratioP2;P2;SDS_P1;SDS_P2;PMS_P1;PMS_P2;Temp;Humidity;BMP_temperature;BMP_pressure;BME280_temperature;BME280_humidity;BME280_pressure;Samples;Min_cycle;Max_cycle;Signal;HPM_P1;HPM_P2
2021/07/01 00:00:52;;;;;;;20.30;12.25;;;;;;;13.70;100.00;100875.13;6271893;28;20063;-74
2021/07/01 00:03:54;;;;;;;23.60;14.05;;;;;;;13.64;100.00;100869.41;6271825;28;20056;-73
2021/07/01 00:06:55;;;;;;;19.10;13.50;;;;;;;13.63;100.00;100876.50;6271479;28;20071;-73
2021/07/01 00:09:56;;;;;;;19.63;13.35;;;;;;;13.72;100.00;100872.41;6271744;28;20045;-73
2021/07/01 00:12:58;;;;;;;19.35;12.20;;;;;;;13.65;100.00;100868.47;6271184;28;20419;-73
2021/07/01 00:16:01;;;;;;;16.98;11.40;;;;;;;13.66;100.00;100878.06;6271528;28;20529;-73
2021/07/01 00:19:03;;;;;;;21.33;13.63;;;;;;;13.55;100.00;100875.28;6271629;28;20053;-73
2021/07/01 00:22:05;;;;;;;19.80;12.48;;;;;;;13.62;100.00;100877.41;6271620;28;20056;-73
2021/07/01 00:25:09;;;;;;;17.27;11.00;;;;;;;13.70;100.00;100875.13;6271143;28;20056;-73
2021/07/01 00:28:10;;;;;;;22.30;13.10;;;;;;;13.45;100.00;100872.38;6271087;28;20439;-72
2021/07/01 00:31:13;;;;;;;24.13;13.82;;;;;;;13.41;100.00;100878.78;6271316;28;20053;-73
2021/07/01 00:34:14;;;;;;;21.70;13.30;;;;;;;13.56;100.00;100869.06;6271263;28;20056;-73
2021/07/01 00:37:15;;;;;;;24.30;14.50;;;;;;;13.41;100.00;100869.09;6271275;28;20048;-73
2021/07/01 00:40:17;;;;;;;29.10;15.00;;;;;;;13.40;100.00;100869.19;6271037;28;20412;-73
2021/07/01 00:43:18;;;;;;;27.48;14.98;;;;;;;13.52;100.00;100867.53;6271092;28;20052;-74
2021/07/01 00:46:21;;;;;;;23.20;14.82;;;;;;;13.57;100.00;100863.66;6270937;28;20045;-73
2021/07/01 00:49:23;;;;;;;31.05;14.00;;;;;;;13.50;100.00;100862.38;6271180;28;20053;-74
2021/07/01 00:52:24;;;;;;;27.65;15.20;;;;;;;13.37;100.00;100864.94;6270959;28;20400;-73
2021/07/01 00:55:26;;;;;;;26.45;15.25;;;;;;;13.42;100.00;100869.94;6270874;28;20065;-73
2021/07/01 00:58:27;;;;;;;32.78;14.75;;;;;;;13.58;100.00;100864.50;6270915;28;20052;-74
2021/07/01 01:01:31;;;;;;;25.65;14.20;;;;;;;13.31;100.00;100862.69;6271197;28;20485;-73
2021/07/01 01:04:32;;;;;;;32.80;16.48;;;;;;;13.24;100.00;100864.00;6274271;28;20044;-73
2021/07/01 01:07:34;;;;;;;39.58;16.98;;;;;;;13.37;100.00;100858.81;6275649;28;20053;-73
2021/07/01 01:10:35;;;;;;;32.03;16.90;;;;;;;13.21;100.00;100848.31;6275895;28;20056;-74
2021/07/01 01:13:36;;;;;;;38.67;17.30;;;;;;;13.27;100.00;100860.34;6275349;28;20049;-74
2021/07/01 01:16:39;;;;;;;26.13;15.90;;;;;;;13.17;100.00;100847.69;6296365;22;20537;-73
2021/07/01 01:19:40;;;;;;;29.42;15.43;;;;;;;13.26;100.00;100842.78;6250691;28;20056;-76
2021/07/01 01:22:43;;;;;;;28.15;15.30;;;;;;;13.14;100.00;100847.03;6266594;28;20056;-75
2021/07/01 01:25:47;;;;;;;32.90;16.10;;;;;;;13.06;100.00;100846.66;6269261;28;20048;-75
2021/07/01 01:28:49;;;;;;;32.88;17.17;;;;;;;13.17;100.00;100852.09;6250424;28;20057;-75
2021/07/01 01:31:50;;;;;;;34.22;19.27;;;;;;;13.04;100.00;100851.19;6250645;28;20409;-75
2021/07/01 01:34:51;;;;;;;33.28;15.95;;;;;;;13.20;100.00;100846.63;6250462;28;20052;-75
2021/07/01 01:37:54;;;;;;;30.15;15.73;;;;;;;12.99;100.00;100847.97;6250083;28;20045;-75
2021/07/01 01:40:55;;;;;;;38.03;17.27;;;;;;;13.04;100.00;100841.47;6250547;28;20049;-76
2021/07/01 01:43:57;;;;;;;33.75;16.42;;;;;;;13.13;100.00;100850.63;6249946;28;20056;-75
2021/07/01 01:46:58;;;;;;;34.83;16.55;;;;;;;13.24;100.00;100852.59;6250246;28;20057;-75
2021/07/01 01:50:00;;;;;;;32.35;16.50;;;;;;;13.06;100.00;100842.22;6249990;28;20056;-75
2021/07/01 01:53:03;;;;;;;26.65;15.60;;;;;;;13.06;100.00;100849.28;6250028;28;20056;-75
2021/07/01 01:56:04;;;;;;;32.15;17.27;;;;;;;13.14;100.00;100845.22;6249733;28;20046;-75
2021/07/01 01:59:06;;;;;;;36.55;16.10;;;;;;;13.16;100.00;100850.41;6249931;28;20056;-75
2021/07/01 02:02:08;;;;;;;35.85;14.75;;;;;;;13.16;100.00;100856.53;6249695;28;20053;-75
2021/07/01 02:05:11;;;;;;;33.40;14.38;;;;;;;13.06;100.00;100852.78;6249391;28;20056;-74
2021/07/01 02:08:13;;;;;;;32.05;14.35;;;;;;;13.14;100.00;100845.22;6249658;28;20049;-75
2021/07/01 02:11:15;;;;;;;28.50;14.23;;;;;;;13.17;100.00;100852.97;6249442;28;20071;-75
2021/07/01 02:14:17;;;;;;;32.63;14.52;;;;;;;13.15;100.00;100846.94;6248558;28;20056;-75
2021/07/01 02:17:19;;;;;;;28.52;14.32;;;;;;;12.98;100.00;100839.19;6248798;28;20046;-75
2021/07/01 02:20:22;;;;;;;37.63;17.75;;;;;;;13.03;100.00;100837.13;6249493;28;20061;-73
2021/07/01 02:23:25;;;;;;;28.73;15.48;;;;;;;12.93;100.00;100836.00;6249153;28;20049;-73
2021/07/01 02:26:26;;;;;;;36.80;15.10;;;;;;;12.89;100.00;100840.63;6249506;28;20041;-73
2021/07/01 02:29:28;;;;;;;31.67;15.57;;;;;;;12.97;100.00;100837.50;6249128;28;20076;-73
2021/07/01 02:32:30;;;;;;;39.88;15.88;;;;;;;12.89;100.00;100831.84;6249204;28;20057;-74
2021/07/01 02:35:32;;;;;;;29.10;16.13;;;;;;;12.89;100.00;100831.84;6248840;28;20057;-74
2021/07/01 02:38:35;;;;;;;36.03;16.10;;;;;;;13.08;100.00;100826.28;6248615;28;20128;-73
2021/07/01 02:41:36;;;;;;;38.75;16.20;;;;;;;13.01;100.00;100830.25;6248892;28;20120;-72
2021/07/01 02:44:37;;;;;;;34.97;16.50;;;;;;;12.97;100.00;100816.41;6248553;28;20053;-73
2021/07/01 02:47:39;;;;;;;35.42;16.35;;;;;;;12.97;100.00;100818.19;6248978;28;20049;-72
2021/07/01 02:50:41;;;;;;;38.10;15.70;;;;;;;12.97;100.00;100818.19;6248569;28;20060;-75
2021/07/01 02:53:44;;;;;;;33.35;15.18;;;;;;;13.01;100.00;100811.78;6248522;28;20060;-73
2021/07/01 02:56:45;;;;;;;37.08;15.43;;;;;;;12.81;100.00;100813.00;6248332;28;20046;-72
2021/07/01 02:59:46;;;;;;;39.10;15.30;;;;;;;12.84;100.00;100813.69;6248346;28;20393;-73
2021/07/01 03:02:48;;;;;;;41.20;17.13;;;;;;;12.81;100.00;100807.75;6248315;28;20057;-78
2021/07/01 03:05:49;;;;;;;38.17;16.48;;;;;;;12.78;100.00;100814.06;6248547;28;20060;-76
2021/07/01 03:08:54;;;;;;;47.83;15.32;;;;;;;12.94;100.00;100811.31;6248002;28;20611;-73
2021/07/01 03:11:55;;;;;;;43.42;15.50;;;;;;;12.86;100.00;100803.06;6248335;28;20049;-76
2021/07/01 03:14:56;;;;;;;46.30;17.17;;;;;;;12.76;100.00;100794.00;6248051;28;20519;-76
2021/07/01 03:17:58;;;;;;;37.88;17.88;;;;;;;12.85;100.00;100796.06;6247738;28;20052;-76
2021/07/01 03:21:00;;;;;;;37.97;16.70;;;;;;;12.93;100.00;100799.06;6248004;28;20111;-74
2021/07/01 03:24:02;;;;;;;40.78;18.02;;;;;;;12.76;100.00;100796.63;6247703;28;20076;-77
2021/07/01 03:27:04;;;;;;;43.10;18.02;;;;;;;12.73;100.00;100802.97;6248178;28;20049;-78
2021/07/01 03:30:07;;;;;;;47.25;19.27;;;;;;;12.68;100.00;100803.25;6247845;28;20056;-75
2021/07/01 03:33:08;;;;;;;47.67;17.05;;;;;;;12.79;100.00;100802.56;6247739;28;20049;-75
2021/07/01 03:36:10;;;;;;;39.65;17.95;;;;;;;12.92;100.00;100792.97;6247696;28;20056;-74
2021/07/01 03:39:12;;;;;;;39.10;17.92;;;;;;;12.81;100.00;100807.75;6247741;28;20045;-77
2021/07/01 03:42:16;;;;;;;48.83;17.65;;;;;;;12.77;100.00;100806.25;6247514;28;20050;-77
2021/07/01 03:45:17;;;;;;;51.28;18.55;;;;;;;12.93;100.00;100810.47;6247431;28;20516;-74
2021/07/01 03:48:20;;;;;;;31.77;17.27;;;;;;;12.77;100.00;100812.38;6247671;28;20048;-75
2021/07/01 03:51:21;;;;;;;42.85;18.83;;;;;;;12.84;100.00;100803.13;6247733;28;20057;-74
2021/07/01 03:54:25;;;;;;;39.47;17.13;;;;;;;12.82;100.00;100807.66;6247103;28;20138;-74
2021/07/01 03:57:27;;;;;;;44.40;18.15;;;;;;;12.80;100.00;100798.13;6247209;28;20042;-75
2021/07/01 04:00:30;;;;;;;47.42;18.88;;;;;;;12.72;100.00;100796.00;6247338;28;20052;-75
2021/07/01 04:03:32;;;;;;;43.15;18.55;;;;;;;12.69;100.00;100799.66;6252909;28;20190;-75
2021/07/01 04:06:33;;;;;;;43.97;19.90;;;;;;;12.73;100.00;100799.47;6271725;28;20049;-75
2021/07/01 04:09:36;;;;;;;42.45;18.02;;;;;;;12.70;100.00;100801.34;6270948;28;20055;-77
2021/07/01 04:12:37;;;;;;;41.08;17.40;;;;;;;12.75;100.00;100806.34;6270404;28;20041;-75
2021/07/01 04:15:38;;;;;;;47.33;18.70;;;;;;;12.79;100.00;100796.44;6270688;28;20575;-74
2021/07/01 04:18:40;;;;;;;41.17;19.20;;;;;;;12.77;100.00;100801.84;6271420;28;20052;-75
2021/07/01 04:21:41;;;;;;;44.92;18.15;;;;;;;12.78;100.00;100792.97;6271231;28;20401;-74
2021/07/01 04:24:44;;;;;;;41.70;19.67;;;;;;;12.78;100.00;100794.75;6271211;28;20055;-74
2021/07/01 04:27:45;;;;;;;34.10;17.88;;;;;;;12.89;100.00;100794.94;6271142;28;20420;-74
2021/07/01 04:30:47;;;;;;;41.03;19.05;;;;;;;12.77;100.00;100786.00;6271178;28;20056;-75
2021/07/01 04:33:48;;;;;;;36.00;18.92;;;;;;;12.79;100.00;100791.19;6271031;28;20052;-74
2021/07/01 04:36:50;;;;;;;45.88;19.88;;;;;;;12.90;100.00;100783.47;6271117;28;20049;-74
2021/07/01 04:39:53;;;;;;;38.20;19.48;;;;;;;12.89;100.00;100787.03;6275623;28;20398;-76
2021/07/01 04:42:54;;;;;;;38.88;18.15;;;;;;;12.88;100.00;100782.69;6276231;28;20427;-73
2021/07/01 04:45:55;;;;;;;39.70;21.45;;;;;;;12.94;100.00;100788.44;6276344;28;20496;-73
2021/07/01 04:48:58;;;;;;;39.13;19.67;;;;;;;12.89;100.00;100785.22;6276281;28;20053;-75
2021/07/01 04:51:59;;;;;;;36.25;20.35;;;;;;;12.99;100.00;100782.00;6276694;28;20049;-74
2021/07/01 04:55:03;;;;;;;33.33;19.70;;;;;;;13.02;100.00;100781.81;6275947;28;20055;-73
2021/07/01 04:58:04;;;;;;;35.15;19.30;;;;;;;13.07;100.00;100780.59;6275856;28;20542;-73
2021/07/01 05:01:05;;;;;;;39.75;18.58;;;;;;;13.15;100.00;100773.03;6275539;28;20405;-74
2021/07/01 05:04:08;;;;;;;43.78;17.08;;;;;;;13.04;100.00;100772.03;6274179;28;20053;-74
2021/07/01 05:07:09;;;;;;;36.08;18.48;;;;;;;12.98;100.00;100775.88;6275361;28;20128;-74
2021/07/01 05:10:14;;;;;;;30.08;18.30;;;;;;;13.02;100.00;100773.91;6275540;28;20053;-74
2021/07/01 05:13:15;;;;;;;29.08;17.27;;;;;;;13.11;100.00;100773.34;6275441;28;20045;-74
2021/07/01 05:16:17;;;;;;;26.77;14.77;;;;;;;13.25;100.00;100773.31;6275649;28;20056;-74
2021/07/01 05:19:18;;;;;;;26.40;15.38;;;;;;;13.04;100.00;100774.69;6275360;28;20048;-74
2021/07/01 05:22:19;;;;;;;30.73;15.60;;;;;;;13.20;100.00;100770.09;6275627;28;20049;-74
2021/07/01 05:25:22;;;;;;;22.42;14.02;;;;;;;13.10;100.00;100769.00;6275106;28;20127;-74
2021/07/01 05:28:24;;;;;;;24.02;14.00;;;;;;;13.06;100.00;100775.41;6275212;28;20516;-74
2021/07/01 05:31:25;;;;;;;29.50;14.70;;;;;;;13.16;100.00;100773.88;6274230;28;20045;-75
2021/07/01 05:34:26;;;;;;;27.30;13.50;;;;;;;13.09;100.00;100776.06;6274825;28;20060;-75
2021/07/01 05:37:28;;;;;;;23.42;14.20;;;;;;;13.22;100.00;100773.53;6274187;28;20587;-75
2021/07/01 05:40:30;;;;;;;27.55;15.43;;;;;;;13.07;100.00;100769.19;6273721;28;20056;-75
2021/07/01 05:43:32;;;;;;;27.92;14.65;;;;;;;13.11;100.00;100775.97;6273307;28;20527;-75
2021/07/01 05:46:33;;;;;;;24.65;13.13;;;;;;;13.10;100.00;100776.91;6273277;28;20049;-75
2021/07/01 05:49:34;;;;;;;21.52;13.63;;;;;;;13.22;100.00;100776.19;6272028;28;20041;-75
2021/07/01 05:52:37;;;;;;;19.33;13.50;;;;;;;13.27;100.00;100775.88;6274057;28;20431;-75
2021/07/01 05:55:40;;;;;;;20.92;13.20;;;;;;;13.24;100.00;100784.00;6274114;28;20056;-75
2021/07/01 05:58:41;;;;;;;24.98;13.95;;;;;;;13.20;100.00;100778.03;6274459;28;20404;-75
2021/07/01 06:01:43;;;;;;;17.73;12.63;;;;;;;13.21;100.00;100785.00;6274634;28;20045;-75
2021/07/01 06:04:44;;;;;;;19.85;11.55;;;;;;;13.28;100.00;100781.06;6274183;28;20390;-75
2021/07/01 06:07:49;;;;;;;22.35;12.63;;;;;;;13.14;100.00;100783.69;6274943;28;20045;-77
2021/07/01 06:10:58;;;;;;;23.17;12.05;;;;;;;13.20;100.00;100776.22;6274267;28;20041;-76
2021/07/01 06:13:59;;;;;;;22.58;12.18;;;;;;;13.16;100.00;100777.38;6274626;28;20117;-77
2021/07/01 06:17:03;;;;;;;23.63;13.02;;;;;;;13.07;100.00;100775.31;6274922;28;20037;-76
2021/07/01 06:20:08;;;;;;;22.73;12.75;;;;;;;13.11;100.00;100773.34;6274313;28;20056;-78
2021/07/01 06:23:10;;;;;;;24.38;14.00;;;;;;;13.00;100.00;100770.53;6249276;28;20428;-75
2021/07/01 06:26:14;;;;;;;25.67;14.30;;;;;;;13.13;100.00;100760.91;6254625;28;20056;-75
2021/07/01 06:29:17;;;;;;;18.77;11.57;;;;;;;13.08;100.00;100769.13;6274177;28;20071;-74
2021/07/01 06:32:18;;;;;;;18.38;11.18;;;;;;;13.16;100.00;100765.97;6272313;28;20052;-75
2021/07/01 06:35:22;;;;;;;18.70;11.55;;;;;;;13.14;100.00;100770.50;6249047;28;20049;-76
2021/07/01 06:38:25;;;;;;;23.48;12.10;;;;;;;13.02;100.00;100773.91;6248887;28;20045;-76
2021/07/01 06:41:29;;;;;;;15.02;10.35;;;;;;;13.20;100.00;100775.38;6249302;28;20049;-75
2021/07/01 06:44:31;;;;;;;22.30;11.30;;;;;;;13.00;100.00;100778.44;6248805;28;20053;-76
2021/07/01 06:47:33;;;;;;;23.52;11.32;;;;;;;13.02;100.00;100774.75;6248975;28;20049;-76
2021/07/01 06:50:34;;;;;;;24.52;11.23;;;;;;;13.00;100.00;100778.44;6249338;28;20057;-77
2021/07/01 06:53:37;;;;;;;18.98;10.77;;;;;;;13.10;100.00;100775.13;6248833;28;20058;-76
2021/07/01 06:56:40;;;;;;;21.10;11.00;;;;;;;13.10;100.00;100774.28;6248756;28;20484;-77
2021/07/01 06:59:42;;;;;;;21.45;10.77;;;;;;;12.97;100.00;100776.00;6249664;28;20050;-77
2021/07/01 07:02:44;;;;;;;19.70;10.82;;;;;;;12.95;100.00;100774.31;6251078;28;20053;-78
2021/07/01 07:05:46;;;;;;;29.98;11.70;;;;;;;13.01;100.00;100767.78;6251345;28;20057;-76
2021/07/01 07:08:48;;;;;;;16.85;10.05;;;;;;;13.04;100.00;100775.53;6248460;28;20048;-76
2021/07/01 07:11:50;;;;;;;17.42;10.23;;;;;;;13.11;100.00;100765.41;6248478;28;20053;-76
2021/07/01 07:14:52;;;;;;;17.30;10.63;;;;;;;13.07;100.00;100772.66;6248216;28;20528;-76
2021/07/01 07:17:55;;;;;;;17.60;9.80;;;;;;;13.11;100.00;100787.38;6247694;28;20053;-75
2021/07/01 07:20:59;;;;;;;16.35;9.50;;;;;;;13.20;100.00;100791.22;6272790;28;20135;-75
2021/07/01 07:24:02;;;;;;;17.77;9.02;;;;;;;13.14;100.00;100779.28;6294373;22;20045;-77
2021/07/01 07:27:06;;;;;;;19.67;9.63;;;;;;;13.24;100.00;100776.91;6272744;28;20072;-76
2021/07/01 07:30:08;;;;;;;19.27;10.00;;;;;;;13.11;100.00;100782.09;6272947;28;20056;-78
2021/07/01 07:33:11;;;;;;;17.90;10.68;;;;;;;13.11;100.00;100779.44;6272840;28;20056;-78
2021/07/01 07:36:13;;;;;;;23.13;9.40;;;;;;;13.21;100.00;100780.56;6272537;28;20052;-77
2021/07/01 07:39:14;;;;;;;19.65;9.70;;;;;;;13.31;100.00;100785.31;6272230;28;20044;-77
2021/07/01 07:42:18;;;;;;;21.05;9.43;;;;;;;13.27;100.00;100778.53;6272413;28;20056;-77
2021/07/01 07:45:20;;;;;;;20.75;9.32;;;;;;;13.29;100.00;100782.75;6272058;28;20056;-76
2021/07/01 07:48:21;;;;;;;15.20;8.65;;;;;;;13.30;100.00;100789.72;6272308;28;20515;-77
2021/07/01 07:51:25;;;;;;;15.02;8.52;;;;;;;13.31;100.00;100794.06;6271981;28;20045;-77
2021/07/01 07:54:29;;;;;;;12.90;7.65;;;;;;;13.43;100.00;100787.97;6271716;28;20084;-77
2021/07/01 07:57:34;;;;;;;16.75;8.95;;;;;;;13.34;100.00;100783.28;6272150;28;20136;-78
2021/07/01 08:00:37;;;;;;;14.27;7.90;;;;;;;13.38;100.00;100778.66;6271821;28;20048;-76
2021/07/01 08:03:41;;;;;;;17.75;6.82;;;;;;;13.53;100.00;100785.59;6270146;28;20056;-76
2021/07/01 08:06:45;;;;;;;9.75;6.38;;;;;;;13.52;100.00;100781.25;6270870;28;20119;-76
2021/07/01 08:09:46;;;;;;;15.40;7.13;;;;;;;13.44;100.00;100779.13;6271736;28;20068;-76
2021/07/01 08:12:52;;;;;;;12.27;6.32;;;;;;;13.59;100.00;100771.16;6270644;28;20045;-76
2021/07/01 08:15:54;;;;;;;9.10;6.72;;;;;;;13.50;100.00;100777.88;6271617;28;20063;-77
2021/07/01 08:18:56;;;;;;;13.07;6.60;;;;;;;13.48;100.00;100778.91;6267811;28;20428;-76
2021/07/01 08:21:58;;;;;;;12.43;6.45;;;;;;;13.50;100.00;100784.97;6262864;28;20419;-79
2021/07/01 08:24:59;;;;;;;8.35;6.07;;;;;;;13.71;100.00;100784.38;6269682;28;20420;-76
2021/07/01 08:28:02;;;;;;;13.90;5.65;;;;;;;13.55;100.00;100786.34;6269656;28;20056;-76
2021/07/01 08:31:07;;;;;;;7.97;5.57;;;;;;;13.73;100.00;100780.81;6269119;28;20080;-75
2021/07/01 08:34:09;;;;;;;9.93;5.82;;;;;;;13.72;100.00;100785.25;6268857;28;20049;-76
2021/07/01 08:37:10;;;;;;;10.63;5.85;;;;;;;13.61;100.00;100785.94;6267346;28;20055;-76
2021/07/01 08:40:15;;;;;;;7.05;5.05;;;;;;;13.60;100.00;100786.91;6269590;28;20049;-76
2021/07/01 08:43:19;;;;;;;9.82;5.75;;;;;;;13.67;100.00;100785.56;6266837;28;20045;-75
2021/07/01 08:46:26;;;;;;;6.90;5.80;;;;;;;13.72;100.00;100782.63;6269266;28;20045;-75
2021/07/01 08:49:34;;;;;;;8.52;5.60;;;;;;;13.85;100.00;100787.91;6269627;28;20041;-75
2021/07/01 08:52:45;;;;;;;9.88;5.53;;;;;;;13.91;100.00;100791.00;6266977;28;20132;-75
2021/07/01 08:55:50;;;;;;;5.85;4.65;;;;;;;13.94;100.00;100796.09;6246433;28;20053;-75
2021/07/01 08:58:57;;;;;;;7.93;5.00;;;;;;;13.87;100.00;100808.00;6246292;28;20390;-80
2021/07/01 09:02:01;;;;;;;8.27;6.10;;;;;;;13.85;100.00;100804.63;6267457;28;20052;-76
2021/07/01 09:05:11;;;;;;;9.57;5.82;;;;;;;13.81;100.00;100795.22;6268393;28;20054;-76
2021/07/01 09:08:14;;;;;;;7.97;5.70;;;;;;;13.88;100.00;100806.22;6269284;28;20068;-76
2021/07/01 09:11:19;;;;;;;6.43;5.40;;;;;;;13.92;100.00;100807.69;6267136;28;20045;-75
2021/07/01 09:14:28;;;;;;;6.45;4.88;;;;;;;13.90;100.00;100804.31;6270164;28;20519;-76
2021/07/01 09:17:32;;;;;;;5.50;4.60;;;;;;;13.97;100.00;100813.53;6268101;28;20041;-75
2021/07/01 09:20:37;;;;;;;9.40;5.70;;;;;;;13.90;100.00;100820.19;6270641;28;20049;-76
2021/07/01 09:23:45;;;;;;;7.70;5.22;;;;;;;14.05;100.00;100816.50;6269871;28;20191;-74
2021/07/01 09:26:48;;;;;;;12.82;6.13;;;;;;;14.05;100.00;100818.31;6275525;28;20045;-74
2021/07/01 09:29:51;;;;;;;6.25;5.15;;;;;;;14.06;100.00;100814.72;6250342;28;20045;-74
2021/07/01 09:32:56;;;;;;;4.80;4.13;;;;;;;14.01;100.00;100825.59;6250514;28;20053;-75
2021/07/01 09:35:58;;;;;;;7.43;4.60;;;;;;;14.10;100.00;100818.84;6272343;28;20060;-75
2021/07/01 09:39:01;;;;;;;6.43;5.50;;;;;;;14.10;100.00;100816.19;6274053;28;20068;-76
2021/07/01 09:42:05;;;;;;;6.60;5.65;;;;;;;14.08;100.00;100818.09;6274778;28;20053;-75
2021/07/01 09:45:10;;;;;;;7.43;5.30;;;;;;;14.20;100.00;100812.81;6274124;28;20496;-74
2021/07/01 09:48:14;;;;;;;5.70;5.10;;;;;;;14.10;100.00;100816.19;6276042;28;20423;-75
2021/07/01 09:51:16;;;;;;;8.73;6.10;;;;;;;14.13;100.00;100829.22;6275130;28;20056;-76
2021/07/01 09:54:21;;;;;;;6.53;5.55;;;;;;;14.11;100.00;100829.31;6274006;28;20214;-77
2021/07/01 09:57:28;;;;;;;8.23;6.35;;;;;;;14.15;100.00;100830.78;6274800;28;20049;-78
2021/07/01 10:00:31;;;;;;;7.05;5.72;;;;;;;14.15;100.00;100825.50;6274556;28;20179;-77
2021/07/01 10:03:53;;;;;;;9.57;6.43;;;;;;;14.27;100.00;100831.78;6272978;28;20063;-75
2021/07/01 10:07:09;;;;;;;10.23;7.65;;;;;;;14.20;100.00;100826.03;6274548;28;20049;-75
2021/07/01 10:10:13;;;;;;;8.50;7.00;;;;;;;14.36;100.00;100828.50;6262958;28;20052;-75
2021/07/01 10:13:15;;;;;;;8.75;6.43;;;;;;;14.31;100.00;100822.69;6263611;28;20045;-75
2021/07/01 10:16:24;;;;;;;9.63;6.40;;;;;;;14.37;100.00;100826.72;6269685;28;20049;-75
2021/07/01 10:19:26;;;;;;;7.72;5.75;;;;;;;14.39;100.00;100830.94;6249389;28;20424;-74
2021/07/01 10:22:35;;;;;;;6.70;5.00;;;;;;;14.41;100.00;100828.19;6249191;28;20485;-76
2021/07/01 10:25:38;;;;;;;6.53;5.35;;;;;;;14.45;100.00;100827.88;6260830;28;20049;-76
2021/07/01 10:28:40;;;;;;;6.13;4.72;;;;;;;14.48;100.00;100826.84;6259369;28;20045;-76
2021/07/01 10:31:56;;;;;;;5.82;4.50;;;;;;;14.57;100.00;100834.16;6249604;28;20057;-76
2021/07/01 10:34:57;;;;;;;7.88;5.30;;;;;;;14.51;100.00;100834.59;6267848;28;20052;-75
2021/07/01 10:38:01;;;;;;;5.38;4.30;;;;;;;14.56;100.00;100829.81;6272836;28;20049;-76
2021/07/01 10:41:03;;;;;;;6.43;4.30;;;;;;;14.50;100.00;100838.19;6276885;28;20049;-78
2021/07/01 10:44:06;;;;;;;5.65;4.25;;;;;;;14.56;100.00;100840.41;6253214;28;20063;-78
2021/07/01 10:47:30;;;;;;;7.22;4.60;;;;;;;14.51;100.00;100834.59;6251507;28;20053;-76
2021/07/01 10:50:32;;;;;;;6.88;4.43;;;;;;;14.49;100.00;100835.63;6250364;28;20053;-77
2021/07/01 10:53:36;;;;;;;6.10;4.78;;;;;;;14.55;100.00;100846.66;6253488;28;20068;-82
2021/07/01 10:56:42;;;;;;;6.47;3.97;;;;;;;14.57;100.00;100842.09;6252779;28;20060;-77
2021/07/01 10:59:49;;;;;;;10.57;4.68;;;;;;;14.64;100.00;100847.81;6255318;28;20084;-77
2021/07/01 11:02:54;;;;;;;5.95;4.57;;;;;;;14.54;100.00;100841.47;6253085;28;20042;-78
2021/07/01 11:05:57;;;;;;;4.63;4.15;;;;;;;14.54;100.00;100839.66;6248520;28;20058;-78
2021/07/01 11:08:59;;;;;;;16.38;5.05;;;;;;;14.63;100.00;100840.84;6248843;28;20046;-77
2021/07/01 11:12:03;;;;;;;5.80;4.68;;;;;;;14.67;100.00;100839.66;6251113;28;20053;-78
2021/07/01 11:15:06;;;;;;;7.35;5.30;;;;;;;14.72;100.00;100842.84;6247932;28;20053;-80
2021/07/01 11:18:10;;;;;;;6.35;5.10;;;;;;;14.70;100.00;100837.66;6275397;28;20045;-78
2021/07/01 11:21:13;;;;;;;6.15;5.10;;;;;;;14.72;100.00;100842.84;6275518;28;20106;-78
2021/07/01 11:24:18;;;;;;;7.57;5.78;;;;;;;14.69;100.00;100853.63;6272847;28;20428;-78
2021/07/01 11:27:23;;;;;;;8.07;5.70;;;;;;;14.70;100.00;100845.59;6274643;28;20044;-78
2021/07/01 11:30:26;;;;;;;6.70;5.97;;;;;;;14.68;100.00;100851.94;6274018;28;20072;-80
2021/07/01 11:33:31;;;;;;;6.38;5.70;;;;;;;14.66;100.00;100853.84;6274107;28;20053;-76
2021/07/01 11:36:33;;;;;;;9.15;6.18;;;;;;;14.73;100.00;100855.13;6271737;28;20059;-78
2021/07/01 11:39:35;;;;;;;12.75;5.85;;;;;;;14.93;100.00;100859.00;6273087;28;20053;-77
2021/07/01 11:42:37;;;;;;;7.97;6.00;;;;;;;14.78;100.00;100863.56;6274337;28;20059;-80
2021/07/01 11:45:39;;;;;;;7.13;5.85;;;;;;;14.82;100.00;100866.88;6275062;28;20060;-76
2021/07/01 11:48:44;;;;;;;7.03;5.85;;;;;;;14.83;100.00;100863.25;6274084;28;20041;-79
2021/07/01 11:51:46;;;;;;;7.68;5.93;;;;;;;14.83;100.00;100876.50;6274391;28;20049;-78
2021/07/01 11:54:47;;;;;;;6.80;5.57;;;;;;;14.84;100.00;100868.44;6272634;28;20060;-78
2021/07/01 11:57:49;;;;;;;7.53;6.70;;;;;;;14.85;100.00;100872.81;6273288;28;20049;-77
2021/07/01 12:00:51;;;;;;;11.38;7.20;;;;;;;14.87;100.00;100877.97;6272589;28;20409;-75
2021/07/01 12:03:54;;;;;;;8.60;7.00;;;;;;;14.88;100.00;100883.16;6275999;28;20053;-79
2021/07/01 12:07:03;;;;;;;8.63;6.90;;;;;;;14.89;100.00;100882.19;6275277;28;20055;-77
2021/07/01 12:10:06;;;;;;;7.30;5.93;;;;;;;14.89;100.00;100884.84;6273669;28;20049;-79
2021/07/01 12:13:43;;;;;;;8.50;6.72;;;;;;;14.92;100.00;100884.63;6276483;28;20496;-80
2021/07/01 12:16:45;;;;;;;6.90;5.80;;;;;;;15.00;100.00;100893.84;6191594;28;20430;-78
2021/07/01 12:20:04;;;;;;;7.35;5.40;;;;;;;14.97;100.00;100895.75;6176157;28;20047;-79
2021/07/01 12:23:21;;;;;;;6.03;4.47;;;;;;;15.02;100.00;100902.53;6254982;28;20049;-77
2021/07/01 12:26:40;;;;;;;4.32;3.75;;;;;;;14.95;100.00;100905.59;6254425;28;20107;-78
2021/07/01 12:29:47;;;;;;;6.00;3.92;;;;;;;15.00;100.00;100904.44;6278103;28;20511;-78
2021/07/01 12:32:48;;;;;;;6.07;4.03;;;;;;;14.99;100.00;100903.59;6281976;28;20405;-79
2021/07/01 12:36:04;;;;;;;4.22;3.38;;;;;;;15.02;100.00;100911.31;6280560;28;20396;-79
2021/07/01 12:39:26;;;;;;;5.13;3.63;;;;;;;15.09;100.00;100911.75;6278310;28;20094;-79
2021/07/01 12:42:27;;;;;;;7.20;3.42;;;;;;;15.09;100.00;100904.66;6281243;28;20037;-78
2021/07/01 12:45:32;;;;;;;5.07;2.70;;;;;;;15.12;100.00;100906.22;6281388;28;20055;-80
2021/07/01 12:48:38;;;;;;;3.55;2.30;;;;;;;15.26;100.00;100916.72;6280814;28;20146;-79
2021/07/01 12:51:44;;;;;;;4.20;2.33;;;;;;;15.25;100.00;100917.63;6282595;28;20057;-80
2021/07/01 12:54:54;;;;;;;3.58;2.17;;;;;;;15.25;100.00;100915.00;6283294;28;20535;-79
2021/07/01 12:57:56;;;;;;;3.13;2.25;;;;;;;15.25;100.00;100907.06;6282484;28;20052;-79
2021/07/01 13:00:58;;;;;;;3.17;2.55;;;;;;;15.32;100.00;100920.72;6286672;28;20067;-79
2021/07/01 13:04:00;;;;;;;3.25;2.67;;;;;;;15.34;100.00;100922.28;6283657;28;20055;-78
2021/07/01 13:07:06;;;;;;;5.65;3.10;;;;;;;15.37;100.00;100921.25;6283366;28;20511;-78
2021/07/01 13:10:10;;;;;;;3.45;2.92;;;;;;;15.41;100.00;100928.03;6279367;28;20081;-78
2021/07/01 13:13:11;;;;;;;5.40;4.43;;;;;;;15.48;100.00;100927.44;6284596;28;20052;-79
2021/07/01 13:16:12;;;;;;;6.95;6.25;;;;;;;15.54;100.00;100934.16;6275978;28;20496;-79
2021/07/01 13:19:21;;;;;;;23.00;18.05;;;;;;;15.63;100.00;100933.47;6274552;28;20041;-79
2021/07/01 13:22:25;;;;;;;7.70;5.35;;;;;;;15.67;100.00;100937.66;6279998;28;20056;-77
2021/07/01 13:25:28;;;;;;;6.28;5.32;;;;;;;15.68;100.00;100926.09;6280155;28;20052;-78
2021/07/01 13:28:29;;;;;;;5.90;5.28;;;;;;;15.76;100.00;100936.16;6279799;28;20390;-76
2021/07/01 13:31:31;;;;;;;7.07;5.78;;;;;;;15.77;100.00;100924.56;6279628;28;20423;-77
2021/07/01 13:34:33;;;;;;;7.30;6.05;;;;;;;15.81;100.00;100933.16;6277382;28;20055;-78
2021/07/01 13:37:37;;;;;;;7.05;5.65;;;;;;;15.88;100.00;100937.03;6277559;28;20424;-77
2021/07/01 13:40:40;;;;;;;8.00;6.05;;;;;;;15.93;100.00;100933.09;6280892;28;20500;-79
2021/07/01 13:43:42;;;;;;;9.70;6.53;;;;;;;15.98;100.00;100936.25;6281763;28;20045;-79
2021/07/01 13:46:43;;;;;;;8.15;6.00;;;;;;;16.12;100.00;100939.69;6278482;28;20057;-79
2021/07/01 13:49:44;;;;;;;7.25;6.10;;;;;;;16.14;100.00;100946.59;6286933;22;20566;-76